Flight Track Log - Related Links

Times and Time Zones

All times are in EST time to prevent confusion due to time zone crossing. See the EJA122 flight status page for this flight to view local times or setup timezone preferences in your user account.

Time Position Orientation Groundspeed Altitude Reporting Facility
EST Latitude Longitude Course Direction KTS MPH feet Rate Location/Type
Mon 12:27:29 PM 33.5639 -86.7561 26° Northeast 154 177 1,200  Level Atlanta Center
Mon 12:28:57 PM 33.6317 -86.7158 26° Northeast 216 249 5,000 2,531 Climbing Atlanta Center
Mon 12:29:56 PM 33.6464 -86.7961 282° West 188 216 7,400 2,571 Climbing Atlanta Center
Mon 12:30:56 PM 33.6444 -86.8908 269° West 223 257 10,100 2,450 Climbing Atlanta Center
Mon 12:31:56 PM 33.6336 -86.9903 263° West 262 302 12,300 2,150 Climbing Atlanta Center
Mon 12:32:56 PM 33.6250 -87.0900 264° West 291 335 14,400 1,800 Climbing Atlanta Center
Mon 12:33:56 PM 33.6139 -87.1967 263° West 310 357 15,900 1,131 Climbing Atlanta Center
Mon 12:35:51 PM 33.5953 -87.4144 264° West 343 395 17,700 1,015 Climbing Memphis Center
Mon 12:37:11 PM 33.5797 -87.5597 263° West 384 442 19,200 1,071 Climbing Memphis Center
Mon 12:38:11 PM 33.5697 -87.6722 264° West 363 418 20,200 1,050 Climbing Memphis Center
Mon 12:39:11 PM 33.5594 -87.7822 264° West 349 402 21,300 1,050 Climbing Memphis Center
Mon 12:40:11 PM 33.5472 -87.8922 262° West 344 396 22,300 1,050 Climbing Memphis Center
Mon 12:41:11 PM 33.5367 -88.0047 264° West 344 396 23,400 1,050 Climbing Memphis Center
Mon 12:42:11 PM 33.5242 -88.1169 262° West 344 396 24,400 900 Climbing Memphis Center
Mon 12:43:11 PM 33.5197 -88.2194 267° West 344 396 25,200 850 Climbing Memphis Center
Mon 12:44:11 PM 33.5050 -88.3269 261° West 344 396 26,100 900 Climbing Memphis Center
Mon 12:45:11 PM 33.4961 -88.4392 265° West 344 396 27,000 850 Climbing Memphis Center
Mon 12:46:11 PM 33.4664 -88.5469 252° West 344 396 27,800 800 Climbing Memphis Center
Mon 12:47:11 PM 33.4031 -88.6428 232° Southwest 349 402 28,600 850 Climbing Memphis Center
Mon 12:48:11 PM 33.3439 -88.7358 233° Southwest 355 409 29,500 900 Climbing Memphis Center
Mon 12:49:11 PM 33.2803 -88.8314 231° Southwest 360 414 30,400 850 Climbing Memphis Center
Mon 12:50:11 PM 33.2419 -88.9389 247° West 365 420 31,200 800 Climbing Memphis Center
Mon 12:51:11 PM 33.2056 -89.0489 248° West 360 414 32,000 850 Climbing Memphis Center
Mon 12:52:11 PM 33.1714 -89.1586 250° West 360 414 32,900 850 Climbing Memphis Center
Mon 12:53:11 PM 33.1347 -89.2608 247° West 349 402 33,700 900 Climbing Memphis Center
Mon 12:54:11 PM 33.0958 -89.3778 248° West 354 407 34,700 900 Climbing Memphis Center
Mon 12:55:11 PM 33.0633 -89.4847 250° West 349 402 35,500 800 Climbing Memphis Center
Mon 12:56:11 PM 33.0475 -89.5889 260° West 339 390 36,300 800 Climbing Memphis Center
Mon 12:57:11 PM 33.0356 -89.6931 262° West 334 384 37,100 850 Climbing Memphis Center
Mon 12:58:11 PM 33.0108 -89.8072 256° West 334 384 38,000 450 Climbing Memphis Center
Mon 12:59:11 PM 33.0031 -89.9214 265° West 339 390 38,000  Level Memphis Center
Mon 01:00:11 PM 32.9847 -90.0231 258° West 345 397 38,000  Level Memphis Center
Mon 01:01:11 PM 32.9661 -90.1394 259° West 356 410 38,000  Level Memphis Center
Mon 01:02:11 PM 32.9494 -90.2558 260° West 356 410 38,000  Level Memphis Center
Mon 01:03:11 PM 32.9286 -90.3769 258° West 362 417 38,000  Level Memphis Center
Mon 01:04:11 PM 32.9119 -90.4958 261° West 368 423 38,000  Level Memphis Center
Mon 01:05:11 PM 32.8931 -90.6147 259° West 373 429 38,000  Level Memphis Center
Mon 01:06:11 PM 32.8739 -90.7358 259° West 373 429 38,000  Level Memphis Center
Mon 01:07:11 PM 32.8547 -90.8617 260° West 373 429 38,000  Level Memphis Center
Mon 01:08:11 PM 32.8353 -90.9828 259° West 373 429 38,000  Level Memphis Center
Mon 01:10:39 PM 32.7889 -91.2956 260° West 381 438 38,000  Level Fort Worth Center
Mon 01:11:39 PM 32.7697 -91.4178 259° West 375 432 38,000  Level Fort Worth Center
Mon 01:12:39 PM 32.7506 -91.5400 259° West 375 432 38,000  Level Fort Worth Center
Mon 01:13:39 PM 32.7289 -91.6575 258° West 375 432 38,000  Level Fort Worth Center
Mon 01:14:39 PM 32.7114 -91.7772 260° West 370 426 38,000  Level Fort Worth Center
Mon 01:15:39 PM 32.6933 -91.8917 259° West 365 420 38,000  Level Fort Worth Center
Mon 01:16:39 PM 32.6733 -92.0042 258° West 360 414 38,000  Level Fort Worth Center
Mon 01:17:39 PM 32.6553 -92.1211 260° West 355 409 38,000  Level Fort Worth Center
Mon 01:18:39 PM 32.6372 -92.2381 260° West 355 409 38,000  Level Fort Worth Center
Mon 01:19:39 PM 32.6189 -92.3550 259° West 360 414 38,000  Level Fort Worth Center
Mon 01:20:39 PM 32.5986 -92.4694 258° West 355 409 38,000  Level Fort Worth Center
Mon 01:21:39 PM 32.5778 -92.5842 258° West 355 409 38,000  Level Fort Worth Center
Mon 01:22:39 PM 32.5592 -92.6958 259° West 355 409 38,000  Level Fort Worth Center
Mon 01:23:39 PM 32.5342 -92.8106 256° West 355 409 38,000  Level Fort Worth Center
Mon 01:24:39 PM 32.5192 -92.9125 260° West 355 409 38,000  Level Fort Worth Center
Mon 01:25:39 PM 32.4964 -93.0392 258° West 355 409 38,000  Level Fort Worth Center
Mon 01:26:39 PM 32.4792 -93.1408 259° West 355 409 38,000  Level Fort Worth Center
Mon 01:27:39 PM 32.4581 -93.2625 258° West 355 409 38,000  Level Fort Worth Center
Mon 01:28:39 PM 32.4406 -93.3617 258° West 355 409 38,000  Level Fort Worth Center
Mon 01:29:39 PM 32.4172 -93.4808 257° West 350 403 38,000  Level Fort Worth Center
Mon 01:30:39 PM 32.4036 -93.5822 261° West 350 403 38,000  Level Fort Worth Center
Mon 01:31:39 PM 32.4031 -93.7078 270° West 350 403 38,000  Level Fort Worth Center
Mon 01:32:39 PM 32.4003 -93.8261 268° West 359 413 38,000  Level Fort Worth Center
Mon 01:33:39 PM 32.4075 -93.9364 274° West 354 407 38,000  Level Fort Worth Center
Mon 01:34:39 PM 32.4086 -94.0522 271° West 349 402 38,000  Level Fort Worth Center
Mon 01:35:39 PM 32.4117 -94.1653 272° West 349 402 38,000  Level Fort Worth Center
Mon 01:36:39 PM 32.4144 -94.2808 272° West 349 402 38,000  Level Fort Worth Center
Mon 01:37:39 PM 32.4131 -94.3914 269° West 349 402 38,000  Level Fort Worth Center
Mon 01:38:39 PM 32.4114 -94.5022 269° West 349 402 38,000  Level Fort Worth Center
Mon 01:39:39 PM 32.4119 -94.6131 270° West 342 394 38,000 -250 Level Fort Worth Center
Mon 01:40:39 PM 32.4083 -94.7311 268° West 347 399 37,500 -1,000 Descending Fort Worth Center
Mon 01:41:39 PM 32.4044 -94.8469 268° West 352 405 36,000 -1,500 Descending Fort Worth Center
Mon 01:42:39 PM 32.4006 -94.9725 268° West 365 420 34,500 -1,400 Descending Fort Worth Center
Mon 01:43:39 PM 32.3942 -95.0811 266° West 370 426 33,200 -1,700 Descending Fort Worth Center
Mon 01:44:39 PM 32.4028 -95.2061 275° West 375 432 31,100 -2,300 Descending Fort Worth Center
Mon 01:45:39 PM 32.4194 -95.3289 279° West 375 432 28,600 -2,500 Descending Fort Worth Center
Mon 01:46:39 PM 32.4403 -95.4589 281° West 394 453 26,100 -2,550 Descending Fort Worth Center
Mon 01:47:39 PM 32.4569 -95.5939 278° West 407 468 23,500 -2,600 Descending Fort Worth Center
Mon 01:48:39 PM 32.4778 -95.7264 281° West 413 475 20,900 -2,800 Descending Fort Worth Center
Mon 01:49:39 PM 32.4983 -95.8664 280° West 401 461 17,900 -2,550 Descending Fort Worth Center
Mon 01:50:39 PM 32.5164 -95.9869 280° West 390 449 15,800 -2,250 Descending Fort Worth Center
Mon 01:51:39 PM 32.5300 -96.1000 278° West 361 415 13,400 -2,200 Descending Fort Worth Center
Mon 01:52:39 PM 32.5481 -96.2131 281° West 351 404 11,400 -2,000 Descending Fort Worth Center
Mon 01:53:39 PM 32.5592 -96.3092 278° West 320 368 9,400 -1,200 Descending Fort Worth Center
Mon 01:54:39 PM 32.5956 -96.3900 298° West 285 328 9,000 -750 Descending Fort Worth Center
Mon 01:55:39 PM 32.6400 -96.4686 304° West 278 320 7,900 -1,250 Descending Fort Worth Center
Mon 01:56:39 PM 32.6883 -96.5397 309° West 284 327 6,500 -1,300 Descending Fort Worth Center
Mon 01:57:39 PM 32.7492 -96.5933 323° Northwest 289 333 5,300 -857 Descending Fort Worth Center
Mon 01:58:24 PM 32.8000 -96.6333 327° Northwest 287 330 5,000 -171 Descending Dallas / Fort Worth TRACON
Mon 01:59:24 PM 32.8500 -96.7167 306° West 281 323 5,000 -100 Level Dallas / Fort Worth TRACON
Mon 02:00:24 PM 32.9000 -96.7833 312° West 280 322 4,800 -762 Descending Dallas / Fort Worth TRACON
Mon 02:01:30 PM 32.9500 -96.8667 306° West 249 287 3,400 -1,200 Descending Dallas / Fort Worth TRACON
Mon 02:02:24 PM 32.9833 -96.9167 308° West 202 232 2,400 -737 Descending Dallas / Fort Worth TRACON
Mon 02:03:24 PM 32.9500 -96.9333 203° Southwest 155 178 2,000 -250 Descending Dallas / Fort Worth TRACON
Mon 02:04:24 PM 32.9167 -96.9167 157° South 137 158 1,900 -350 Descending Dallas / Fort Worth TRACON
Mon 02:05:24 PM 32.8833 -96.8833 140° Southeast 107 123 1,300 -632 Descending Dallas / Fort Worth TRACON
Mon 02:06:18 PM 32.8667 -96.8667 140° Southeast 112 129 700 -667 Descending Dallas / Fort Worth TRACON
Mon 02:08:00 PM 32.8333 -96.8500 301° West  Level FlightAware Approximate
Mon 02:15:00 PM 32.2055 -97.0495 301° West  Level Estimated
Mon 02:16:00 PM 32.1158 -97.0778 301° West  Level Estimated
Mon 02:17:00 PM 32.0260 -97.1060 301° West  Level Estimated
Mon 02:18:00 PM 31.9363 -97.1341 301° West  Level Estimated
Mon 02:19:00 PM 31.8466 -97.1622 301° West  Level Estimated
Mon 02:20:00 PM 31.7568 -97.1903 301° West  Level Estimated
Mon 02:21:00 PM 31.6671 -97.2183 301° West  Level Estimated
Mon 02:22:00 PM 31.5773 -97.2462 301° West  Level Estimated
Mon 02:23:00 PM 31.4876 -97.2741 301° West  Level Estimated
Mon 02:24:00 PM 31.3978 -97.3020 301° West  Level Estimated
Mon 02:25:00 PM 31.3080 -97.3297 301° West  Level Estimated
Mon 02:26:00 PM 31.2182 -97.3575 301° West  Level Estimated
Mon 02:27:00 PM 31.1285 -97.3851 301° West  Level Estimated
Mon 02:28:00 PM 31.0387 -97.4128 301° West  Level Estimated
Mon 02:29:00 PM 30.9489 -97.4404 301° West  Level Estimated
Mon 02:30:00 PM 30.8591 -97.4679 301° West  Level Estimated
Mon 02:31:00 PM 30.7693 -97.4953 301° West  Level Estimated
Mon 02:32:00 PM 30.6794 -97.5228 301° West  Level Estimated
Mon 02:33:00 PM 30.5896 -97.5501 301° West  Level Estimated
Mon 02:34:00 PM 30.4998 -97.5775 301° West  Level Estimated
Mon 02:35:00 PM 30.4100 -97.6047 301° West  Level Estimated

Login

Don't have an account? Register now (free) for customized features, flight alerts, and more!